Terminal Aerodrome Forecast
Issued by NWS

Home | Current Version | Previous Version | Text Only | Print | Product List | Glossary On
Versions: 1 2 3 4 5 6 7 8 9 10 11 12 13 14
923
FTUS45 KTFX 200520
TAFHVR
TAF
KHVR 200520Z 2006/2106 23011KT P6SM SCT070 OVC110
     FM201000 23008KT P6SM SCT090 BKN150
     FM201600 23007KT P6SM SCT200=

USA.gov is the U.S. government's official web portal to all federal, state and local government web resources and services.